Cornion — CQMH — position and weather

sailwx.info

Track history (hours):
 
Tides and Currents Weather Stations Pressure Air Temp Water Temp Dewpoint Dewpoint Depression Visibility Wind Speed Wind Dir Waves Ship Positions

Cornion

Last reported at 2016-Apr-30 18:33 UTC. Time now 2016-May-01 04:09 UTC.
Position N 38°40' E 002°38'.

Length 90 m; draft 6.1 m.

Type: Cargo ship. MMSI: 255803370.

Date/timePositionNaut miles runAvg speedWind from/ knotsBaromVisibWave heightAir tempDewpointWater temp
2016-Apr-30 18:33N 38°40' E 002°38'1110.2
2016-Apr-30 17:26N 38°46' E 002°51'12 9.9
2016-Apr-30 16:15N 38°52' E 003°04'7 9.8
2016-Apr-30 15:33N 38°56' E 003°12'1010.0
2016-Apr-30 14:33N 39°01' E 003°23'37310.1
2016-Apr-29 01:33N 42°26' E 010°14'1010.2
2016-Apr-29 00:33N 42°34' E 010°22'1010.2
2016-Apr-28 23:33N 42°42' E 010°30'1010.1
2016-Apr-28 22:32N 42°52' E 010°34'13 0.7
2016-Apr-28 02:08N 42°40' E 010°28'6 9.7
2016-Apr-28 01:28N 42°40' E 010°19'230 8.7
2016-Apr-26 23:08N 43°09' E 005°08'610.3
2016-Apr-26 22:33N 43°12' E 005°01'1110.6
2016-Apr-26 21:33N 43°22' E 004°58'3 2.9
2016-Apr-26 20:31N 43°24' E 004°55'0 0.0
2016-Apr-26 19:25N 43°24' E 004°55'0 0.0
2016-Apr-26 18:28N 43°24' E 004°55'0 0.0
2016-Apr-26 17:31N 43°24' E 004°55'0 0.0
2016-Apr-26 16:25N 43°25' E 004°55'0 0.0
2016-Apr-26 15:31N 43°24' E 004°55'0 0.0
2016-Apr-26 14:31N 43°24' E 004°55'0 0.0
2016-Apr-26 13:31N 43°24' E 004°55'0 0.0
2016-Apr-26 12:28N 43°24' E 004°55'0 0.0
2016-Apr-26 11:31N 43°24' E 004°55'0 0.0
2016-Apr-26 10:28N 43°24' E 004°55'0 0.0
2016-Apr-26 09:31N 43°24' E 004°55'0 0.0
2016-Apr-26 08:31N 43°24' E 004°55'0 0.0
2016-Apr-26 07:28N 43°24' E 004°55'0 0.0
2016-Apr-26 06:31N 43°24' E 004°55'0 0.0
2016-Apr-26 05:31N 43°24' E 004°55'0 0.0
2016-Apr-26 04:28N 43°24' E 004°55'0 0.0
2016-Apr-26 03:31N 43°24' E 004°55'0 0.0
2016-Apr-26 02:31N 43°24' E 004°55'0 0.0
2016-Apr-26 01:31N 43°24' E 004°55'0 0.0
2016-Apr-26 00:31N 43°24' E 004°55'0 0.0
2016-Apr-25 23:31N 43°24' E 004°55'0 0.0
2016-Apr-25 22:31N 43°24' E 004°55'0 0.0
2016-Apr-25 21:31N 43°24' E 004°55'0 0.0
2016-Apr-25 20:31N 43°24' E 004°55'0 0.0
2016-Apr-25 19:31N 43°24' E 004°55'0 0.0
2016-Apr-25 18:31N 43°24' E 004°55'0 0.0
2016-Apr-25 17:31N 43°24' E 004°55'0 0.0
2016-Apr-25 16:31N 43°24' E 004°55'0 0.0
2016-Apr-25 15:28N 43°24' E 004°55'0 0.0
2016-Apr-25 14:31N 43°24' E 004°55'0 0.0
2016-Apr-25 13:31N 43°24' E 004°55'0 0.0
2016-Apr-25 12:31N 43°24' E 004°55'0 0.0
2016-Apr-25 11:28N 43°24' E 004°55'0 0.0
2016-Apr-25 10:31N 43°24' E 004°55'0 0.0
2016-Apr-25 09:31N 43°24' E 004°55'0 0.0
2016-Apr-25 08:31N 43°24' E 004°55'0 0.0
2016-Apr-25 07:31N 43°24' E 004°55'0 0.0
2016-Apr-25 06:31N 43°24' E 004°55'0 0.0
2016-Apr-25 05:31N 43°24' E 004°55'0 0.0
2016-Apr-25 04:31N 43°24' E 004°55'0 0.0
2016-Apr-25 03:31N 43°24' E 004°55'0 0.0
2016-Apr-25 02:28N 43°24' E 004°55'0 0.0
2016-Apr-25 01:31N 43°24' E 004°55'0 0.0
2016-Apr-25 00:31N 43°24' E 004°55'0 0.0
2016-Apr-24 23:31N 43°24' E 004°55'0 0.0
2016-Apr-24 22:31N 43°24' E 004°55'0 0.0
2016-Apr-24 21:31N 43°24' E 004°55'0 0.0
2016-Apr-24 20:31N 43°24' E 004°55'0 0.0
2016-Apr-24 19:31N 43°24' E 004°55'0 0.0
2016-Apr-24 18:31N 43°24' E 004°55'0 0.0
2016-Apr-24 17:31N 43°24' E 004°55'0 0.0
2016-Apr-24 16:31N 43°24' E 004°55'0 0.0
2016-Apr-24 15:31N 43°24' E 004°55'0 0.0
2016-Apr-24 14:31N 43°24' E 004°55'0 0.0
2016-Apr-24 13:31N 43°24' E 004°55'0 0.0
2016-Apr-24 12:31N 43°24' E 004°55'0 0.0
2016-Apr-24 11:31N 43°24' E 004°55'0 0.0
2016-Apr-24 10:31N 43°24' E 004°55'0 0.0
2016-Apr-24 09:31N 43°24' E 004°55'0 0.0
2016-Apr-24 08:31N 43°24' E 004°55'0 0.0
2016-Apr-24 07:31N 43°24' E 004°55'0 0.0
2016-Apr-24 06:31N 43°24' E 004°55'0 0.0
2016-Apr-24 05:31N 43°24' E 004°55'0 0.0
2016-Apr-24 04:28N 43°24' E 004°55'0 0.0
2016-Apr-24 03:28N 43°24' E 004°55'0 0.0
2016-Apr-24 02:31N 43°24' E 004°55'0 0.0
2016-Apr-24 01:31N 43°24' E 004°55'0 0.0
2016-Apr-24 00:31N 43°24' E 004°55'0 0.0
2016-Apr-23 23:31N 43°24' E 004°55'0 0.0
2016-Apr-23 22:31N 43°24' E 004°55'0 0.0
2016-Apr-23 21:31N 43°24' E 004°55'0 0.0
2016-Apr-23 20:31N 43°24' E 004°55'0 0.0
2016-Apr-23 19:31N 43°24' E 004°55'0 0.0
2016-Apr-23 18:31N 43°24' E 004°55'0 0.0
2016-Apr-23 17:31N 43°24' E 004°55'0 0.1
2016-Apr-23 16:19N 43°25' E 004°55'1 1.9
2016-Apr-23 15:32N 43°26' E 004°53'0 0.0
2016-Apr-23 14:29N 43°26' E 004°53'0 0.0
2016-Apr-23 13:32N 43°26' E 004°53'0 0.0
2016-Apr-23 12:08N 43°26' E 004°53'0 0.0
2016-Apr-23 11:20N 43°26' E 004°53'0 0.0
2016-Apr-23 10:17N 43°26' E 004°53'0 0.0
2016-Apr-23 09:20N 43°26' E 004°53'0 0.0
2016-Apr-23 08:29N 43°26' E 004°53'0 0.0
2016-Apr-23 07:29N 43°26' E 004°53'0 0.0
2016-Apr-23 06:32N 43°26' E 004°53'0 0.0
2016-Apr-23 05:32N 43°26' E 004°53'0 0.0
2016-Apr-23 04:23N 43°26' E 004°53'0 0.0
2016-Apr-23 03:23N 43°26' E 004°53'0 0.0
2016-Apr-23 02:29N 43°26' E 004°53'0 0.0
2016-Apr-23 01:29N 43°26' E 004°53'0 0.0
2016-Apr-23 00:32N 43°26' E 004°53'0 0.0
2016-Apr-22 23:29N 43°26' E 004°53'0 0.0
2016-Apr-22 22:32N 43°26' E 004°53'0 0.0
2016-Apr-22 21:32N 43°26' E 004°53'0 0.0
2016-Apr-22 20:32N 43°26' E 004°53'0 0.0
2016-Apr-22 19:32N 43°26' E 004°53'0 0.0
2016-Apr-22 18:32N 43°26' E 004°53'0 0.0
2016-Apr-22 17:29N 43°26' E 004°53'0 0.0
2016-Apr-22 16:32N 43°26' E 004°53'0 0.0
2016-Apr-22 15:32N 43°26' E 004°53'0 0.0
2016-Apr-22 14:32N 43°26' E 004°53'0 0.0
2016-Apr-22 13:32N 43°26' E 004°53'0 0.0
2016-Apr-22 12:32N 43°26' E 004°53'0 0.0
2016-Apr-22 11:32N 43°26' E 004°53'0 0.0
2016-Apr-22 10:32N 43°26' E 004°53'0 0.0
2016-Apr-22 09:32N 43°26' E 004°53'0 0.0
2016-Apr-22 08:32N 43°26' E 004°53'0 0.0
2016-Apr-22 07:32N 43°26' E 004°53'0 0.0
2016-Apr-22 06:32N 43°26' E 004°53'0 0.3
2016-Apr-22 05:34N 43°25' E 004°53'8 7.6
2016-Apr-22 04:33N 43°19' E 004°59'146 9.1
2016-Apr-21 12:28N 41°18' E 003°07'10 9.7
2016-Apr-21 11:27N 41°10' E 002°59'9 9.8
2016-Apr-21 10:32N 41°03' E 002°52'1010.1
2016-Apr-21 09:33N 40°55' E 002°44'1010.0
2016-Apr-21 08:33N 40°47' E 002°37'1010.1
2016-Apr-21 07:33N 40°39' E 002°29'1010.0
2016-Apr-21 06:33N 40°31' E 002°21'1010.2
2016-Apr-21 05:33N 40°23' E 002°12'1010.1
2016-Apr-21 04:33N 40°15' E 002°04'1010.0
2016-Apr-21 03:34N 40°07' E 001°57'1010.1
2016-Apr-21 02:33N 39°59' E 001°49'1010.1
2016-Apr-21 01:34N 39°51' E 001°41'1010.2
2016-Apr-21 00:33N 39°42' E 001°33'  
Track history (hours):
 
Tides and Currents Weather Stations Pressure Air Temp Water Temp Dewpoint Dewpoint Depression Visibility Wind Speed Wind Dir Waves Ship Positions

Cornion

Last reported at 2016-Apr-30 18:33 UTC. Time now 2016-May-01 04:09 UTC.
Position N 38°40' E 002°38'.

Length 90 m; draft 6.1 m.

Type: Cargo ship. MMSI: 255803370.

Date/timePositionNaut miles runAvg speedWind from/ knotsBaromVisibWave heightAir tempDewpointWater temp
2016-Apr-30 18:33N 38°40' E 002°38'1110.2
2016-Apr-30 17:26N 38°46' E 002°51'12 9.9
2016-Apr-30 16:15N 38°52' E 003°04'7 9.8
2016-Apr-30 15:33N 38°56' E 003°12'1010.0
2016-Apr-30 14:33N 39°01' E 003°23'37310.1
2016-Apr-29 01:33N 42°26' E 010°14'1010.2
2016-Apr-29 00:33N 42°34' E 010°22'1010.2
2016-Apr-28 23:33N 42°42' E 010°30'1010.1
2016-Apr-28 22:32N 42°52' E 010°34'13 0.7
2016-Apr-28 02:08N 42°40' E 010°28'6 9.7
2016-Apr-28 01:28N 42°40' E 010°19'230 8.7
2016-Apr-26 23:08N 43°09' E 005°08'610.3
2016-Apr-26 22:33N 43°12' E 005°01'1110.6
2016-Apr-26 21:33N 43°22' E 004°58'3 2.9
2016-Apr-26 20:31N 43°24' E 004°55'0 0.0
2016-Apr-26 19:25N 43°24' E 004°55'0 0.0
2016-Apr-26 18:28N 43°24' E 004°55'0 0.0
2016-Apr-26 17:31N 43°24' E 004°55'0 0.0
2016-Apr-26 16:25N 43°25' E 004°55'0 0.0
2016-Apr-26 15:31N 43°24' E 004°55'0 0.0
2016-Apr-26 14:31N 43°24' E 004°55'0 0.0
2016-Apr-26 13:31N 43°24' E 004°55'0 0.0
2016-Apr-26 12:28N 43°24' E 004°55'0 0.0
2016-Apr-26 11:31N 43°24' E 004°55'0 0.0
2016-Apr-26 10:28N 43°24' E 004°55'0 0.0
2016-Apr-26 09:31N 43°24' E 004°55'0 0.0
2016-Apr-26 08:31N 43°24' E 004°55'0 0.0
2016-Apr-26 07:28N 43°24' E 004°55'0 0.0
2016-Apr-26 06:31N 43°24' E 004°55'0 0.0
2016-Apr-26 05:31N 43°24' E 004°55'0 0.0
2016-Apr-26 04:28N 43°24' E 004°55'0 0.0
2016-Apr-26 03:31N 43°24' E 004°55'0 0.0
2016-Apr-26 02:31N 43°24' E 004°55'0 0.0
2016-Apr-26 01:31N 43°24' E 004°55'0 0.0
2016-Apr-26 00:31N 43°24' E 004°55'0 0.0
2016-Apr-25 23:31N 43°24' E 004°55'0 0.0
2016-Apr-25 22:31N 43°24' E 004°55'0 0.0
2016-Apr-25 21:31N 43°24' E 004°55'0 0.0
2016-Apr-25 20:31N 43°24' E 004°55'0 0.0
2016-Apr-25 19:31N 43°24' E 004°55'0 0.0
2016-Apr-25 18:31N 43°24' E 004°55'0 0.0
2016-Apr-25 17:31N 43°24' E 004°55'0 0.0
2016-Apr-25 16:31N 43°24' E 004°55'0 0.0
2016-Apr-25 15:28N 43°24' E 004°55'0 0.0
2016-Apr-25 14:31N 43°24' E 004°55'0 0.0
2016-Apr-25 13:31N 43°24' E 004°55'0 0.0
2016-Apr-25 12:31N 43°24' E 004°55'0 0.0
2016-Apr-25 11:28N 43°24' E 004°55'0 0.0
2016-Apr-25 10:31N 43°24' E 004°55'0 0.0
2016-Apr-25 09:31N 43°24' E 004°55'0 0.0
2016-Apr-25 08:31N 43°24' E 004°55'0 0.0
2016-Apr-25 07:31N 43°24' E 004°55'0 0.0
2016-Apr-25 06:31N 43°24' E 004°55'0 0.0
2016-Apr-25 05:31N 43°24' E 004°55'0 0.0
2016-Apr-25 04:31N 43°24' E 004°55'0 0.0
2016-Apr-25 03:31N 43°24' E 004°55'0 0.0
2016-Apr-25 02:28N 43°24' E 004°55'0 0.0
2016-Apr-25 01:31N 43°24' E 004°55'0 0.0
2016-Apr-25 00:31N 43°24' E 004°55'0 0.0
2016-Apr-24 23:31N 43°24' E 004°55'0 0.0
2016-Apr-24 22:31N 43°24' E 004°55'0 0.0
2016-Apr-24 21:31N 43°24' E 004°55'0 0.0
2016-Apr-24 20:31N 43°24' E 004°55'0 0.0
2016-Apr-24 19:31N 43°24' E 004°55'0 0.0
2016-Apr-24 18:31N 43°24' E 004°55'0 0.0
2016-Apr-24 17:31N 43°24' E 004°55'0 0.0
2016-Apr-24 16:31N 43°24' E 004°55'0 0.0
2016-Apr-24 15:31N 43°24' E 004°55'0 0.0
2016-Apr-24 14:31N 43°24' E 004°55'0 0.0
2016-Apr-24 13:31N 43°24' E 004°55'0 0.0
2016-Apr-24 12:31N 43°24' E 004°55'0 0.0
2016-Apr-24 11:31N 43°24' E 004°55'0 0.0
2016-Apr-24 10:31N 43°24' E 004°55'0 0.0
2016-Apr-24 09:31N 43°24' E 004°55'0 0.0
2016-Apr-24 08:31N 43°24' E 004°55'0 0.0
2016-Apr-24 07:31N 43°24' E 004°55'0 0.0
2016-Apr-24 06:31N 43°24' E 004°55'0 0.0
2016-Apr-24 05:31N 43°24' E 004°55'0 0.0
2016-Apr-24 04:28N 43°24' E 004°55'0 0.0
2016-Apr-24 03:28N 43°24' E 004°55'0 0.0
2016-Apr-24 02:31N 43°24' E 004°55'0 0.0
2016-Apr-24 01:31N 43°24' E 004°55'0 0.0
2016-Apr-24 00:31N 43°24' E 004°55'0 0.0
2016-Apr-23 23:31N 43°24' E 004°55'0 0.0
2016-Apr-23 22:31N 43°24' E 004°55'0 0.0
2016-Apr-23 21:31N 43°24' E 004°55'0 0.0
2016-Apr-23 20:31N 43°24' E 004°55'0 0.0
2016-Apr-23 19:31N 43°24' E 004°55'0 0.0
2016-Apr-23 18:31N 43°24' E 004°55'0 0.0
2016-Apr-23 17:31N 43°24' E 004°55'0 0.1
2016-Apr-23 16:19N 43°25' E 004°55'1 1.9
2016-Apr-23 15:32N 43°26' E 004°53'0 0.0
2016-Apr-23 14:29N 43°26' E 004°53'0 0.0
2016-Apr-23 13:32N 43°26' E 004°53'0 0.0
2016-Apr-23 12:08N 43°26' E 004°53'0 0.0
2016-Apr-23 11:20N 43°26' E 004°53'0 0.0
2016-Apr-23 10:17N 43°26' E 004°53'0 0.0
2016-Apr-23 09:20N 43°26' E 004°53'0 0.0
2016-Apr-23 08:29N 43°26' E 004°53'0 0.0
2016-Apr-23 07:29N 43°26' E 004°53'0 0.0
2016-Apr-23 06:32N 43°26' E 004°53'0 0.0
2016-Apr-23 05:32N 43°26' E 004°53'0 0.0
2016-Apr-23 04:23N 43°26' E 004°53'0 0.0
2016-Apr-23 03:23N 43°26' E 004°53'0 0.0
2016-Apr-23 02:29N 43°26' E 004°53'0 0.0
2016-Apr-23 01:29N 43°26' E 004°53'0 0.0
2016-Apr-23 00:32N 43°26' E 004°53'0 0.0
2016-Apr-22 23:29N 43°26' E 004°53'0 0.0
2016-Apr-22 22:32N 43°26' E 004°53'0 0.0
2016-Apr-22 21:32N 43°26' E 004°53'0 0.0
2016-Apr-22 20:32N 43°26' E 004°53'0 0.0
2016-Apr-22 19:32N 43°26' E 004°53'0 0.0
2016-Apr-22 18:32N 43°26' E 004°53'0 0.0
2016-Apr-22 17:29N 43°26' E 004°53'0 0.0
2016-Apr-22 16:32N 43°26' E 004°53'0 0.0
2016-Apr-22 15:32N 43°26' E 004°53'0 0.0
2016-Apr-22 14:32N 43°26' E 004°53'0 0.0
2016-Apr-22 13:32N 43°26' E 004°53'0 0.0
2016-Apr-22 12:32N 43°26' E 004°53'0 0.0
2016-Apr-22 11:32N 43°26' E 004°53'0 0.0
2016-Apr-22 10:32N 43°26' E 004°53'0 0.0
2016-Apr-22 09:32N 43°26' E 004°53'0 0.0
2016-Apr-22 08:32N 43°26' E 004°53'0 0.0
2016-Apr-22 07:32N 43°26' E 004°53'0 0.0
2016-Apr-22 06:32N 43°26' E 004°53'0 0.3
2016-Apr-22 05:34N 43°25' E 004°53'8 7.6
2016-Apr-22 04:33N 43°19' E 004°59'146 9.1
2016-Apr-21 12:28N 41°18' E 003°07'10 9.7
2016-Apr-21 11:27N 41°10' E 002°59'9 9.8
2016-Apr-21 10:32N 41°03' E 002°52'1010.1
2016-Apr-21 09:33N 40°55' E 002°44'1010.0
2016-Apr-21 08:33N 40°47' E 002°37'1010.1
2016-Apr-21 07:33N 40°39' E 002°29'1010.0
2016-Apr-21 06:33N 40°31' E 002°21'1010.2
2016-Apr-21 05:33N 40°23' E 002°12'1010.1
2016-Apr-21 04:33N 40°15' E 002°04'1010.0
2016-Apr-21 03:34N 40°07' E 001°57'1010.1
2016-Apr-21 02:33N 39°59' E 001°49'1010.1
2016-Apr-21 01:34N 39°51' E 001°41'1010.2
2016-Apr-21 00:33N 39°42' E 001°33'  

Dump ship's entire track history